Time;durP1;ratioP1;P1;durP2;ratioP2;P2;SDS_P1;SDS_P2;PMS_P1;PMS_P2;Temp;Humidity;BMP_temperature;BMP_pressure;BME280_temperature;BME280_humidity;BME280_pressure;Samples;Min_cycle;Max_cycle;Signal;HPM_P1;HPM_P2
2022/07/20 00:01:31;;;;;;;9.85;4.55;;;19.90;99.90;;;;;;5005252;28;20385;-84
2022/07/20 00:03:57;;;;;;;9.73;4.80;;;19.90;99.90;;;;;;5007953;28;20448;-85
2022/07/20 00:06:23;;;;;;;6.13;4.35;;;19.80;99.90;;;;;;5023425;28;20907;-83
2022/07/20 00:11:33;;;;;;;7.45;4.93;;;19.80;99.90;;;;;;5024678;28;20416;-83
2022/07/20 00:14:01;;;;;;;10.65;4.80;;;19.80;99.90;;;;;;5006677;28;20453;-84
2022/07/20 00:16:29;;;;;;;7.25;4.63;;;19.80;99.90;;;;;;5027201;28;20770;-83
2022/07/20 00:18:55;;;;;;;5.97;4.68;;;19.80;99.90;;;;;;5030541;28;20397;-84
2022/07/20 00:21:21;;;;;;;6.90;4.97;;;19.90;99.90;;;;;;5013599;28;20390;-83
2022/07/20 00:23:47;;;;;;;6.72;5.32;;;19.90;99.90;;;;;;5005801;28;20385;-81
2022/07/20 00:26:13;;;;;;;6.03;4.78;;;19.80;99.90;;;;;;5013773;28;20493;-83
2022/07/20 00:28:38;;;;;;;6.93;5.05;;;19.90;99.90;;;;;;5013155;28;20468;-83
2022/07/20 00:31:05;;;;;;;6.33;5.10;;;19.80;99.90;;;;;;5013252;28;20432;-83
2022/07/20 00:33:30;;;;;;;6.13;4.80;;;19.80;99.90;;;;;;5030013;28;20894;-82
2022/07/20 00:35:56;;;;;;;7.15;4.80;;;19.70;99.90;;;;;;5012440;28;20385;-83
2022/07/20 00:38:22;;;;;;;5.63;5.03;;;19.70;99.90;;;;;;5029630;28;20429;-82
2022/07/20 00:40:48;;;;;;;6.03;5.40;;;19.70;99.90;;;;;;5029790;28;21592;-83
2022/07/20 00:43:13;;;;;;;6.95;5.07;;;19.70;99.90;;;;;;5029113;28;20389;-83
2022/07/20 00:45:39;;;;;;;7.60;5.10;;;19.60;99.90;;;;;;5012633;28;20521;-83
2022/07/20 00:48:05;;;;;;;5.40;4.68;;;19.50;99.90;;;;;;5030691;28;20377;-82
2022/07/20 00:50:31;;;;;;;5.67;4.73;;;19.60;99.90;;;;;;5030061;28;20405;-82
2022/07/20 00:52:57;;;;;;;7.80;4.88;;;19.50;99.90;;;;;;5012562;28;20381;-83
2022/07/20 00:55:23;;;;;;;7.47;4.80;;;19.60;99.90;;;;;;5030166;28;20480;-81
2022/07/20 00:57:48;;;;;;;6.78;4.60;;;19.50;99.90;;;;;;5012961;28;20835;-83
2022/07/20 01:00:16;;;;;;;6.18;4.95;;;19.50;99.90;;;;;;5012533;28;20397;-83
2022/07/20 01:02:42;;;;;;;6.63;5.27;;;19.40;99.90;;;;;;5012032;28;20404;-84
2022/07/20 01:05:15;;;;;;;6.30;5.18;;;19.40;99.90;;;;;;5012958;28;20385;-83
2022/07/20 01:07:45;;;;;;;10.10;5.18;;;19.30;99.90;;;;;;5012481;28;20424;-84
2022/07/20 01:10:13;;;;;;;5.65;4.90;;;19.30;99.90;;;;;;5012209;28;20816;-82
2022/07/20 01:12:42;;;;;;;7.45;5.00;;;19.20;99.90;;;;;;5012387;28;20388;-83
2022/07/20 01:15:08;;;;;;;7.72;5.05;;;19.20;99.90;;;;;;5012829;28;20404;-84
2022/07/20 01:17:34;;;;;;;5.93;5.07;;;19.20;99.90;;;;;;5012054;28;20393;-84
2022/07/20 01:19:59;;;;;;;8.13;5.15;;;19.20;99.90;;;;;;5030178;28;20753;-85
2022/07/20 01:22:25;;;;;;;6.97;4.80;;;19.30;99.90;;;;;;5030091;28;20408;-85
2022/07/20 01:24:51;;;;;;;6.50;5.07;;;19.20;99.90;;;;;;5011242;28;20401;-84
2022/07/20 01:27:16;;;;;;;217.07;31.37;;;19.10;99.90;;;;;;5028911;28;20756;-83
2022/07/20 01:29:42;;;;;;;52.70;12.13;;;19.10;99.90;;;;;;5029202;28;20409;-85
2022/07/20 01:32:08;;;;;;;16.50;6.80;;;19.10;99.90;;;;;;5011931;28;20382;-84
2022/07/20 01:34:34;;;;;;;8.05;5.78;;;19.00;99.90;;;;;;5028948;28;20393;-85
2022/07/20 01:37:00;;;;;;;6.93;5.03;;;19.00;99.90;;;;;;5029121;28;20859;-84
2022/07/20 01:39:25;;;;;;;11.43;5.73;;;18.90;99.90;;;;;;5029069;28;20432;-83
2022/07/20 01:41:53;;;;;;;9.50;5.43;;;18.90;99.90;;;;;;5028694;28;20740;-83
2022/07/20 01:44:22;;;;;;;10.13;5.53;;;18.80;99.90;;;;;;5028704;28;20398;-84
2022/07/20 01:46:51;;;;;;;7.88;5.22;;;18.80;99.90;;;;;;4998858;28;20384;-83
2022/07/20 01:49:18;;;;;;;10.80;5.78;;;18.70;99.90;;;;;;5011445;28;20382;-84
2022/07/20 01:51:44;;;;;;;11.10;5.45;;;18.60;99.90;;;;;;4998964;28;20396;-84
2022/07/20 01:54:10;;;;;;;10.15;5.28;;;18.50;99.90;;;;;;5028408;28;20385;-84
2022/07/20 01:56:36;;;;;;;6.35;5.10;;;18.50;99.90;;;;;;5015436;28;20802;-82
2022/07/20 01:59:01;;;;;;;8.87;5.13;;;18.50;99.90;;;;;;5033562;28;20397;-82
2022/07/20 02:01:27;;;;;;;9.32;5.28;;;18.40;99.90;;;;;;5015167;28;20431;-84
2022/07/20 02:03:53;;;;;;;8.02;5.47;;;18.30;99.90;;;;;;5032460;28;20879;-82
2022/07/20 02:06:19;;;;;;;5.90;5.03;;;18.30;99.90;;;;;;5033623;28;20378;-84
2022/07/20 02:08:44;;;;;;;6.40;5.00;;;18.30;99.90;;;;;;5034260;28;20420;-84
2022/07/20 02:11:10;;;;;;;8.23;5.53;;;18.20;99.90;;;;;;5033305;28;20385;-84
2022/07/20 02:13:37;;;;;;;7.00;5.70;;;18.20;99.90;;;;;;5034767;28;20394;-83
2022/07/20 02:16:16;;;;;;;8.48;5.28;;;18.10;99.90;;;;;;5033654;28;20397;-84
2022/07/20 02:18:42;;;;;;;6.20;5.50;;;18.10;99.90;;;;;;5014056;28;20409;-83
2022/07/20 02:21:08;;;;;;;8.20;6.63;;;18.10;99.90;;;;;;5032483;28;20400;-83
2022/07/20 02:23:34;;;;;;;9.07;7.57;;;18.10;99.90;;;;;;5015122;28;20485;-86
2022/07/20 02:25:59;;;;;;;6.88;5.20;;;18.00;99.90;;;;;;5032074;28;20393;-83
2022/07/20 02:28:25;;;;;;;7.60;6.03;;;18.00;99.90;;;;;;5016145;28;20440;-83
2022/07/20 02:30:51;;;;;;;6.90;5.50;;;17.90;99.90;;;;;;5032928;28;20867;-83
2022/07/20 02:33:17;;;;;;;8.50;5.50;;;17.80;99.90;;;;;;5031258;28;20461;-84
2022/07/20 02:35:42;;;;;;;7.40;5.43;;;17.80;99.90;;;;;;5013570;28;20790;-83
2022/07/20 02:38:08;;;;;;;7.22;5.32;;;17.80;99.90;;;;;;5014042;28;20408;-83
2022/07/20 02:40:34;;;;;;;8.27;5.67;;;17.80;99.90;;;;;;5031797;28;20377;-83
2022/07/20 02:42:59;;;;;;;6.47;5.60;;;17.70;99.90;;;;;;5031482;28;20373;-83
2022/07/20 02:45:38;;;;;;;7.33;5.53;;;17.70;99.90;;;;;;5031459;28;20436;-83
2022/07/20 02:48:04;;;;;;;9.68;6.22;;;17.70;99.90;;;;;;5031155;28;20414;-83
2022/07/20 02:50:33;;;;;;;7.05;5.80;;;17.60;99.90;;;;;;5031231;28;20377;-83
2022/07/20 02:53:31;;;;;;;6.75;5.53;;;17.60;99.90;;;;;;4999926;28;20380;-82
2022/07/20 02:56:02;;;;;;;7.78;6.07;;;17.50;99.90;;;;;;4978271;28;20867;-83
2022/07/20 02:58:33;;;;;;;8.20;5.97;;;17.50;99.90;;;;;;5012702;28;20914;-83
2022/07/20 03:01:01;;;;;;;6.07;5.47;;;17.50;99.90;;;;;;5006260;28;20374;-82
2022/07/20 03:03:26;;;;;;;6.73;6.03;;;17.40;99.90;;;;;;5030387;28;20472;-83
2022/07/20 03:05:52;;;;;;;7.85;6.22;;;17.40;99.90;;;;;;5012163;28;20480;-83
2022/07/20 03:08:21;;;;;;;6.45;5.78;;;17.40;99.90;;;;;;5012591;28;20377;-82
2022/07/20 03:10:47;;;;;;;9.25;6.00;;;17.40;99.90;;;;;;5013069;28;20377;-83
2022/07/20 03:13:12;;;;;;;6.90;5.75;;;17.40;99.90;;;;;;5012786;28;20436;-83
2022/07/20 03:15:38;;;;;;;8.25;5.72;;;17.50;99.90;;;;;;5030537;28;20389;-82
2022/07/20 03:18:04;;;;;;;7.63;5.87;;;17.50;99.90;;;;;;5031125;28;20421;-83
2022/07/20 03:20:33;;;;;;;7.70;5.90;;;17.40;99.90;;;;;;5031217;28;20377;-83
2022/07/20 03:22:59;;;;;;;7.80;5.70;;;17.20;99.90;;;;;;5032022;28;20887;-83
2022/07/20 03:25:25;;;;;;;7.10;5.70;;;17.20;99.90;;;;;;5030151;28;20767;-83
2022/07/20 03:27:55;;;;;;;7.07;5.65;;;17.20;99.90;;;;;;5012893;28;20382;-83
2022/07/20 03:30:22;;;;;;;8.82;5.72;;;17.20;99.90;;;;;;5006258;28;20458;-83
2022/07/20 03:32:48;;;;;;;6.88;5.55;;;17.20;99.90;;;;;;5028614;28;20393;-83
2022/07/20 03:35:14;;;;;;;6.43;5.30;;;17.20;99.90;;;;;;5031010;28;20417;-83
2022/07/20 03:37:42;;;;;;;6.53;5.38;;;17.30;99.90;;;;;;5011421;28;20382;-82
2022/07/20 03:40:08;;;;;;;7.80;6.03;;;17.20;99.90;;;;;;5030165;28;20456;-83
2022/07/20 03:42:34;;;;;;;6.88;6.10;;;17.20;99.90;;;;;;5012303;28;20472;-82
2022/07/20 03:45:00;;;;;;;8.05;6.38;;;17.20;99.90;;;;;;5029907;28;20433;-83
2022/07/20 03:47:26;;;;;;;6.63;5.43;;;17.20;99.90;;;;;;5012250;28;20389;-83
2022/07/20 03:49:58;;;;;;;9.15;6.70;;;17.20;99.90;;;;;;5011815;28;20393;-83
2022/07/20 03:52:31;;;;;;;7.53;6.05;;;17.20;99.90;;;;;;5005232;28;20426;-82
2022/07/20 03:54:57;;;;;;;7.93;5.97;;;17.20;99.90;;;;;;5005711;28;20891;-82
2022/07/20 03:57:25;;;;;;;7.97;6.30;;;17.30;99.90;;;;;;5011659;28;20446;-83
2022/07/20 03:59:51;;;;;;;8.68;5.95;;;17.40;99.90;;;;;;4993177;28;20495;-83
2022/07/20 04:02:17;;;;;;;27.42;9.05;;;17.50;99.90;;;;;;5010321;28;20474;-83
2022/07/20 04:04:45;;;;;;;46.70;9.90;;;17.50;99.90;;;;;;5009427;28;20386;-83
2022/07/20 04:07:11;;;;;;;22.88;7.22;;;17.60;99.90;;;;;;5005369;28;20382;-83
2022/07/20 04:09:46;;;;;;;25.03;7.90;;;17.60;99.90;;;;;;5012671;28;20392;-83
2022/07/20 04:12:15;;;;;;;22.88;7.53;;;17.60;99.90;;;;;;5012574;28;20397;-84
2022/07/20 04:14:41;;;;;;;16.83;7.63;;;17.70;99.90;;;;;;5031394;28;20443;-81
2022/07/20 04:17:07;;;;;;;14.43;7.18;;;17.90;99.90;;;;;;5031531;28;20397;-85
2022/07/20 04:19:36;;;;;;;15.60;7.07;;;18.00;99.90;;;;;;5013908;28;20489;-84
2022/07/20 04:22:05;;;;;;;14.25;7.30;;;18.20;99.90;;;;;;5000668;28;20422;-83
2022/07/20 04:24:31;;;;;;;11.43;6.90;;;18.30;99.90;;;;;;5002487;28;20429;-82
2022/07/20 04:26:57;;;;;;;11.10;7.32;;;18.50;99.90;;;;;;5029729;28;20839;-83
2022/07/20 04:29:23;;;;;;;10.93;6.90;;;18.60;99.90;;;;;;5013836;28;20378;-83
2022/07/20 04:31:49;;;;;;;10.05;7.05;;;18.70;99.90;;;;;;5029353;28;20443;-83
2022/07/20 04:34:15;;;;;;;12.52;7.05;;;18.80;99.90;;;;;;5029495;28;20384;-84
2022/07/20 04:36:41;;;;;;;31.95;8.85;;;19.00;99.90;;;;;;5029543;28;20382;-83
2022/07/20 04:39:06;;;;;;;16.00;7.60;;;19.10;99.90;;;;;;5022781;28;20437;-84
2022/07/20 04:41:32;;;;;;;13.73;7.43;;;19.20;99.90;;;;;;5028849;28;20386;-83
2022/07/20 04:43:58;;;;;;;14.70;6.83;;;19.30;99.90;;;;;;5011450;28;20429;-84
2022/07/20 04:46:24;;;;;;;14.25;7.18;;;19.40;99.90;;;;;;5029548;28;20866;-84
2022/07/20 04:48:50;;;;;;;34.50;8.23;;;19.70;99.90;;;;;;5028985;28;20388;-83
2022/07/20 04:51:15;;;;;;;20.20;7.53;;;20.00;99.90;;;;;;5028760;28;20465;-84
2022/07/20 04:53:41;;;;;;;17.83;6.55;;;20.30;99.90;;;;;;5029739;28;20389;-84
2022/07/20 04:56:09;;;;;;;14.90;6.67;;;20.50;99.90;;;;;;5028361;28;20403;-83
2022/07/20 04:58:35;;;;;;;10.93;6.20;;;20.70;99.90;;;;;;5011004;28;21020;-83
2022/07/20 05:01:01;;;;;;;10.80;5.82;;;21.00;99.90;;;;;;5021758;28;20387;-83
2022/07/20 05:03:27;;;;;;;10.10;6.07;;;21.10;99.90;;;;;;5027307;28;20736;-82
2022/07/20 05:05:53;;;;;;;184.75;22.05;;;21.30;99.90;;;;;;5029168;28;20413;-83
2022/07/20 05:08:20;;;;;;;23.30;7.57;;;21.50;99.90;;;;;;4993891;28;20470;-83
2022/07/20 05:10:46;;;;;;;9.75;5.63;;;21.80;99.90;;;;;;5008142;28;20387;-83
2022/07/20 05:13:11;;;;;;;12.25;6.88;;;21.90;99.90;;;;;;5008352;28;20383;-83
2022/07/20 05:15:37;;;;;;;20.15;6.80;;;22.10;99.90;;;;;;5025919;28;20377;-83
2022/07/20 05:18:03;;;;;;;66.30;10.63;;;22.10;99.90;;;;;;5011327;28;20478;-83
2022/07/20 05:20:28;;;;;;;48.93;8.87;;;22.20;99.90;;;;;;5029254;28;20405;-83
2022/07/20 05:22:54;;;;;;;15.55;6.15;;;22.30;99.90;;;;;;5012003;28;20398;-84
2022/07/20 05:25:21;;;;;;;8.83;6.50;;;22.40;99.90;;;;;;5012207;28;20447;-84
2022/07/20 05:27:47;;;;;;;20.13;7.40;;;22.60;99.90;;;;;;5029879;28;20382;-84
2022/07/20 05:30:12;;;;;;;9.43;6.77;;;22.70;99.90;;;;;;5029186;28;20439;-85
2022/07/20 05:32:38;;;;;;;19.27;7.90;;;23.00;99.90;;;;;;5028782;28;20389;-84
2022/07/20 05:35:05;;;;;;;16.57;7.13;;;23.20;99.90;;;;;;5029509;28;20382;-84
2022/07/20 05:37:31;;;;;;;10.65;6.68;;;23.50;99.90;;;;;;5011413;28;20456;-84
2022/07/20 05:39:57;;;;;;;15.48;7.50;;;23.70;99.90;;;;;;5029772;28;20987;-84
2022/07/20 05:42:22;;;;;;;13.00;6.70;;;23.90;99.90;;;;;;5011747;28;20757;-86
2022/07/20 05:44:49;;;;;;;8.57;6.57;;;24.10;99.90;;;;;;5011235;28;20437;-85
2022/07/20 05:47:16;;;;;;;15.48;7.78;;;24.20;99.90;;;;;;5011456;28;20468;-85
2022/07/20 05:49:44;;;;;;;9.30;6.40;;;24.40;99.90;;;;;;5028925;28;20393;-85
2022/07/20 05:52:10;;;;;;;8.85;6.40;;;24.50;99.90;;;;;;5028012;28;20378;-85
2022/07/20 05:54:35;;;;;;;11.43;6.93;;;24.70;99.90;;;;;;5029037;28;20447;-85
2022/07/20 05:57:01;;;;;;;9.20;6.75;;;25.00;99.90;;;;;;5012170;28;20424;-85
2022/07/20 05:59:27;;;;;;;10.23;6.30;;;25.20;99.90;;;;;;5011677;28;20409;-83
2022/07/20 06:01:52;;;;;;;9.80;6.55;;;25.40;99.90;;;;;;5011273;28;20389;-83
2022/07/20 06:04:18;;;;;;;10.65;6.80;;;25.60;99.90;;;;;;5012075;28;20393;-85
2022/07/20 06:06:44;;;;;;;7.87;6.43;;;25.80;99.90;;;;;;5011513;28;20436;-86
2022/07/20 06:09:10;;;;;;;9.88;6.50;;;26.00;99.90;;;;;;5010942;28;20443;-85
2022/07/20 06:11:36;;;;;;;9.63;6.22;;;26.20;99.90;;;;;;5022675;28;20476;-83
2022/07/20 06:14:02;;;;;;;11.17;5.97;;;26.40;98.80;;;;;;5005009;28;20496;-85
2022/07/20 06:16:28;;;;;;;11.00;6.82;;;26.40;98.60;;;;;;5028443;28;20440;-86
2022/07/20 06:18:53;;;;;;;9.00;6.20;;;26.40;98.80;;;;;;5010754;28;20409;-84
2022/07/20 06:21:19;;;;;;;7.88;6.68;;;26.60;99.90;;;;;;5010194;28;20377;-84
2022/07/20 06:23:45;;;;;;;87.40;14.23;;;26.70;98.80;;;;;;5026899;28;20370;-85
2022/07/20 06:26:11;;;;;;;13.63;7.35;;;26.80;98.20;;;;;;5010694;28;20879;-84
2022/07/20 06:28:37;;;;;;;12.35;6.38;;;27.00;98.80;;;;;;5029091;28;20822;-85
2022/07/20 06:31:04;;;;;;;21.67;7.40;;;27.10;97.30;;;;;;5010145;28;20378;-83
2022/07/20 06:33:29;;;;;;;11.15;6.10;;;27.30;97.50;;;;;;5010736;28;20418;-83
2022/07/20 06:35:55;;;;;;;10.93;6.17;;;27.60;96.20;;;;;;5026844;28;20443;-85
2022/07/20 06:38:21;;;;;;;10.40;6.20;;;27.80;95.70;;;;;;5026345;28;20377;-85
2022/07/20 06:40:46;;;;;;;12.20;6.35;;;28.00;95.90;;;;;;5009924;28;20894;-85
2022/07/20 06:43:12;;;;;;;14.25;6.50;;;28.60;95.00;;;;;;5031776;28;20443;-85
2022/07/20 06:45:37;;;;;;;17.70;7.27;;;28.70;95.20;;;;;;5013397;28;20400;-83
2022/07/20 06:48:03;;;;;;;21.87;7.50;;;29.10;94.20;;;;;;5032461;28;20412;-84
2022/07/20 06:50:29;;;;;;;11.30;6.20;;;29.40;93.10;;;;;;5014702;28;20489;-85
2022/07/20 06:52:55;;;;;;;11.03;6.20;;;29.90;93.40;;;;;;5014711;28;20982;-85
2022/07/20 06:55:20;;;;;;;12.90;5.90;;;30.30;91.90;;;;;;5031789;28;20751;-86
2022/07/20 06:57:49;;;;;;;8.00;5.60;;;30.90;91.70;;;;;;5031693;28;20385;-86
2022/07/20 07:00:15;;;;;;;6.77;5.73;;;30.90;92.00;;;;;;5032119;28;20959;-84
2022/07/20 07:02:41;;;;;;;10.05;5.63;;;31.30;99.90;;;;;;5028402;28;20378;-84
2022/07/20 07:05:08;;;;;;;8.15;5.22;;;31.50;90.20;;;;;;5014353;28;20451;-86
2022/07/20 07:07:33;;;;;;;9.60;5.15;;;31.80;90.10;;;;;;5014230;28;20397;-83
2022/07/20 07:09:59;;;;;;;13.07;5.77;;;32.20;87.10;;;;;;5013634;28;20949;-83
2022/07/20 07:12:25;;;;;;;9.93;5.70;;;;;;;;;;5014068;28;20432;-83
2022/07/20 07:14:51;;;;;;;11.18;5.35;;;;;;;;;;5031415;28;20386;-85
2022/07/20 07:17:18;;;;;;;25.90;6.40;;;;;;;;;;5014598;28;20492;-84
2022/07/20 07:19:44;;;;;;;13.68;5.25;;;;;;;;;;5012119;28;20442;-86
2022/07/20 07:22:10;;;;;;;11.25;5.63;;;32.70;99.90;;;;;;5014189;28;20386;-85
2022/07/20 07:24:36;;;;;;;11.48;5.45;;;;;;;;;;5032385;28;20403;-86
2022/07/20 07:27:02;;;;;;;15.63;5.57;;;;;;;;;;5014846;28;20397;-84
2022/07/20 07:29:28;;;;;;;22.98;6.07;;;;;;;;;;5033188;28;20373;-87
2022/07/20 07:31:58;;;;;;;11.13;4.82;;;;;;;;;;5015072;28;20413;-86
2022/07/20 07:34:26;;;;;;;9.75;4.88;;;;;;;;;;5013572;28;20759;-85
2022/07/20 07:36:52;;;;;;;17.23;5.68;;;;;;;;;;5012661;28;20903;-84
2022/07/20 07:39:18;;;;;;;11.63;5.22;;;;;;;;;;5033264;28;20409;-86
2022/07/20 07:41:44;;;;;;;8.30;4.78;;;;;;;;;;5014740;28;20390;-87
2022/07/20 07:44:10;;;;;;;9.70;4.75;;;;;;;;;;5014773;28;20875;-86
2022/07/20 07:46:36;;;;;;;15.80;5.18;;;;;;;;;;4998102;28;20792;-87
2022/07/20 07:49:04;;;;;;;8.65;4.57;;;;;;;;;;4995646;28;20880;-86
2022/07/20 07:51:31;;;;;;;8.52;4.80;;;;;;;;;;5024729;28;20535;-87
2022/07/20 07:53:57;;;;;;;16.47;5.77;;;;;;;;;;4994876;28;20372;-86
2022/07/20 07:56:23;;;;;;;16.73;4.88;;;;;;;;;;4999275;28;20385;-87
2022/07/20 07:58:49;;;;;;;14.70;5.03;;;;;;;;;;5018726;28;20786;-86
2022/07/20 08:01:15;;;;;;;10.03;4.67;;;;;;;;;;5027066;28;20476;-85
2022/07/20 08:03:41;;;;;;;7.32;4.43;;;;;;;;;;5022651;28;20825;-86
2022/07/20 08:06:07;;;;;;;12.80;4.97;;;;;;;;;;5002910;28;20861;-85
2022/07/20 08:08:34;;;;;;;9.75;4.38;;;;;;;;;;4993306;28;20493;-86
2022/07/20 08:11:00;;;;;;;8.43;4.28;;;;;;;;;;5010825;28;20379;-85
2022/07/20 08:13:27;;;;;;;9.75;4.30;;;;;;;;;;4992727;28;20378;-86
2022/07/20 08:15:53;;;;;;;8.93;4.10;;;;;;;;;;5035645;28;20428;-86
2022/07/20 08:18:19;;;;;;;13.52;4.80;;;;;;;;;;5027096;28;20446;-85
2022/07/20 08:20:46;;;;;;;11.27;4.57;;;;;;;;;;4993038;28;20379;-86
2022/07/20 08:23:12;;;;;;;6.75;4.10;;;;;;;;;;5014294;28;20881;-86
2022/07/20 08:25:38;;;;;;;6.80;4.10;;;;;;;;;;4993148;28;20415;-86
2022/07/20 08:28:15;;;;;;;7.43;3.60;;;;;;;;;;5011187;28;20417;-86
2022/07/20 08:30:45;;;;;;;9.13;4.32;;;;;;;;;;5023977;28;20378;-85
2022/07/20 08:33:11;;;;;;;5.68;3.88;;;;;;;;;;5029540;28;20416;-86
2022/07/20 08:35:37;;;;;;;19.10;4.95;;;;;;;;;;5010101;28;20363;-85
2022/07/20 08:38:04;;;;;;;68.82;8.95;;;;;;;;;;5011195;28;20912;-84
2022/07/20 08:40:30;;;;;;;7.13;3.70;;;;;;;;;;5007635;28;20401;-86
2022/07/20 08:42:56;;;;;;;8.43;3.83;;;;;;;;;;5011374;28;20409;-87
2022/07/20 08:45:22;;;;;;;6.40;3.50;;;;;;;;;;5000222;28;20444;-85
2022/07/20 08:47:49;;;;;;;10.32;4.00;;;;;;;;;;5010334;28;20867;-85
2022/07/20 08:50:24;;;;;;;12.60;3.87;;;;;;;;;;5011832;28;20422;-85
2022/07/20 08:52:50;;;;;;;9.07;4.10;;;;;;;;;;5011607;28;20480;-86
2022/07/20 08:55:16;;;;;;;6.63;3.30;;;;;;;;;;5010312;28;20749;-85
2022/07/20 08:57:42;;;;;;;6.97;3.50;;;;;;;;;;4993058;28;20473;-86
2022/07/20 09:00:09;;;;;;;11.10;4.20;;;;;;;;;;4992880;28;20856;-86
2022/07/20 09:03:01;;;;;;;6.65;3.88;;;;;;;;;;4994325;28;20394;-85
2022/07/20 09:05:28;;;;;;;10.98;4.20;;;;;;;;;;5023270;28;20496;-86
2022/07/20 09:07:55;;;;;;;6.20;3.60;;;;;;;;;;5013217;28;20374;-87
2022/07/20 09:10:27;;;;;;;8.30;4.00;;;;;;;;;;5009812;28;20395;-87
2022/07/20 09:13:00;;;;;;;7.15;3.70;;;;;;;;;;5020897;28;20380;-85
2022/07/20 09:15:27;;;;;;;12.53;3.93;;;;;;;;;;5012160;28;20790;-85
2022/07/20 09:18:13;;;;;;;7.13;4.07;;;;;;;;;;5029944;28;20385;-84
2022/07/20 09:20:41;;;;;;;7.15;3.70;;;;;;;;;;4994835;28;20960;-84
2022/07/20 09:23:08;;;;;;;4.75;3.58;;;;;;;;;;5028752;28;20413;-86
2022/07/20 09:25:35;;;;;;;6.47;3.67;;;;;;;;;;5028775;28;20452;-86
2022/07/20 09:28:01;;;;;;;7.47;3.58;;;;;;;;;;5010900;28;20384;-85
2022/07/20 11:07:45;;;;;;;46.38;6.32;;;37.00;55.20;;;;;;5117994;22;20434;-84
2022/07/20 11:10:27;;;;;;;8.13;3.20;;;36.90;56.50;;;;;;5013521;28;20587;-85
2022/07/20 11:12:55;;;;;;;7.88;3.33;;;36.90;54.60;;;;;;5031255;28;20382;-83
2022/07/20 11:15:21;;;;;;;3.90;2.85;;;36.80;54.90;;;;;;5031862;28;20385;-84
2022/07/20 11:17:47;;;;;;;18.33;4.13;;;;;;;;;;5014109;28;20806;-85
2022/07/20 11:20:17;;;;;;;5.47;3.13;;;36.70;53.50;;;;;;5013810;28;20980;-85
2022/07/20 11:22:44;;;;;;;8.47;3.47;;;36.70;54.80;;;;;;5011892;28;20975;-84
2022/07/20 11:25:10;;;;;;;8.37;3.40;;;36.60;54.50;;;;;;5011611;28;20412;-84
2022/07/20 11:27:35;;;;;;;11.95;3.35;;;36.50;55.50;;;;;;5011766;28;20758;-85
2022/07/20 11:30:02;;;;;;;5.25;2.88;;;36.60;56.60;;;;;;5031054;28;20388;-84
2022/07/20 11:32:28;;;;;;;8.50;3.33;;;36.70;56.20;;;;;;5028728;28;20389;-85
2022/07/20 11:34:53;;;;;;;6.05;3.05;;;36.80;55.40;;;;;;5011476;28;20401;-85
2022/07/20 11:37:21;;;;;;;9.67;3.70;;;36.70;54.30;;;;;;5008431;28;20420;-86
2022/07/20 11:39:48;;;;;;;8.48;3.40;;;;;;;;;;5029444;28;20421;-86
2022/07/20 11:42:15;;;;;;;4.60;2.90;;;;;;;;;;5029399;28;20535;-83
2022/07/20 11:44:41;;;;;;;7.22;3.20;;;;;;;;;;5030017;28;20398;-87
2022/07/20 11:47:08;;;;;;;8.82;3.33;;;37.00;53.20;;;;;;5011083;28;20956;-84
2022/07/20 11:49:33;;;;;;;9.67;3.10;;;36.90;54.30;;;;;;5010082;28;20733;-87
2022/07/20 11:52:05;;;;;;;13.80;3.85;;;36.70;54.50;;;;;;5010977;28;20397;-86
2022/07/20 11:54:37;;;;;;;7.82;3.55;;;36.70;55.00;;;;;;4997286;28;20871;-86
2022/07/20 11:57:04;;;;;;;9.82;3.40;;;36.70;54.40;;;;;;5011707;28;20409;-85
2022/07/20 11:59:30;;;;;;;6.97;3.50;;;36.60;53.20;;;;;;5030730;28;20588;-85
2022/07/20 12:01:57;;;;;;;10.47;3.10;;;36.50;52.40;;;;;;5027808;28;20465;-86
2022/07/20 12:04:24;;;;;;;5.97;3.00;;;36.60;53.40;;;;;;5030279;28;20373;-84
2022/07/20 12:06:55;;;;;;;6.53;3.08;;;36.60;52.80;;;;;;5030370;28;20390;-86
2022/07/20 12:09:33;;;;;;;5.00;3.20;;;36.60;52.00;;;;;;5009798;28;20396;-84
2022/07/20 12:12:01;;;;;;;4.43;3.13;;;;;;;;;;5010578;28;20396;-85
2022/07/20 12:14:41;;;;;;;6.18;3.13;;;36.60;52.80;;;;;;5011684;28;20867;-86
2022/07/20 12:17:21;;;;;;;4.80;3.10;;;36.50;55.20;;;;;;5012533;28;20883;-86
2022/07/20 12:19:50;;;;;;;8.20;3.30;;;36.30;54.60;;;;;;5010859;28;20437;-85
2022/07/20 12:22:21;;;;;;;5.88;3.30;;;36.30;53.70;;;;;;5011955;28;20827;-84
2022/07/20 12:25:09;;;;;;;8.23;3.75;;;36.30;53.60;;;;;;5010113;28;20486;-86
2022/07/20 12:27:36;;;;;;;8.38;3.50;;;36.40;55.60;;;;;;5009671;28;20439;-86
2022/07/20 12:30:34;;;;;;;5.97;3.00;;;36.60;55.40;;;;;;5011856;28;21069;-85
2022/07/20 12:33:05;;;;;;;8.82;3.45;;;;;;;;;;5010176;28;20378;-87
2022/07/20 12:35:31;;;;;;;17.65;4.22;;;;;;;;;;5011496;28;20385;-87
2022/07/20 12:37:57;;;;;;;8.32;3.50;;;;;;;;;;5011399;28;20397;-86
2022/07/20 12:40:34;;;;;;;9.85;3.63;;;;;;;;;;5026987;28;20476;-87
2022/07/20 12:43:01;;;;;;;6.38;3.40;;;;;;;;;;5027636;28;20420;-88
2022/07/20 12:45:27;;;;;;;4.65;3.03;;;;;;;;;;5007302;28;20374;-86
2022/07/20 12:47:53;;;;;;;6.63;3.67;;;;;;;;;;5011928;28;20750;-86
2022/07/20 12:50:19;;;;;;;5.60;3.28;;;;;;;;;;5029550;28;20863;-85
2022/07/20 12:52:46;;;;;;;9.15;3.30;;;;;;;;;;5025690;28;20740;-84
2022/07/20 12:55:12;;;;;;;6.22;3.47;;;;;;;;;;5005792;28;20385;-85
2022/07/20 12:57:38;;;;;;;9.57;3.50;;;;;;;;;;5009914;28;20813;-86
2022/07/20 13:00:05;;;;;;;11.73;3.78;;;;;;;;;;5007375;28;20474;-85
2022/07/20 13:02:31;;;;;;;17.92;4.15;;;;;;;;;;5010753;28;20393;-85
2022/07/20 13:04:57;;;;;;;19.70;4.72;;;;;;;;;;5029156;28;20377;-86
2022/07/20 13:07:23;;;;;;;7.37;3.40;;;;;;;;;;5011529;28;20433;-84
2022/07/20 13:09:49;;;;;;;7.50;3.63;;;;;;;;;;5011299;28;20388;-85
2022/07/20 13:12:15;;;;;;;6.30;3.33;;;;;;;;;;5009781;28;20385;-88
2022/07/20 13:14:41;;;;;;;8.73;3.60;;;;;;;;;;5028368;28;21000;-86
2022/07/20 13:17:08;;;;;;;8.95;3.58;;;;;;;;;;5028409;28;20427;-85
2022/07/20 13:19:34;;;;;;;8.50;3.90;;;;;;;;;;5007260;28;20499;-86
2022/07/20 13:22:00;;;;;;;41.33;6.43;;;;;;;;;;5009856;28;20385;-86
2022/07/20 13:24:26;;;;;;;40.20;6.38;;;;;;;;;;5010405;28;20397;-86
2022/07/20 13:26:54;;;;;;;5.45;3.50;;;;;;;;;;5011050;28;20409;-88
2022/07/20 13:29:20;;;;;;;15.85;4.97;;;;;;;;;;5010734;28;20388;-86
2022/07/20 13:31:46;;;;;;;7.93;3.90;;;;;;;;;;5028841;28;20396;-84
2022/07/20 13:34:12;;;;;;;7.10;3.40;;;;;;;;;;5029345;28;20362;-85
2022/07/20 13:36:38;;;;;;;7.05;3.45;;;;;;;;;;5027408;28;20413;-86
2022/07/20 13:39:05;;;;;;;6.28;3.40;;;;;;;;;;5010216;28;20460;-86
2022/07/20 13:41:31;;;;;;;7.22;3.50;;;;;;;;;;5007429;28;20385;-84
2022/07/20 13:43:57;;;;;;;5.57;3.22;;;;;;;;;;5028038;28;20369;-85
2022/07/20 13:46:23;;;;;;;7.25;3.60;;;;;;;;;;5028193;28;20409;-85
2022/07/20 13:48:51;;;;;;;12.23;3.80;;;;;;;;;;5012828;28;20385;-84
2022/07/20 13:51:18;;;;;;;8.30;3.50;;;;;;;;;;5016086;28;20399;-85
2022/07/20 13:53:45;;;;;;;11.75;3.63;;;;;;;;;;5035101;28;20395;-85
2022/07/20 13:56:11;;;;;;;22.23;4.50;;;;;;;;;;5016848;28;20879;-86
2022/07/20 13:58:38;;;;;;;45.97;7.53;;;;;;;;;;5015611;28;20379;-84
2022/07/20 14:01:06;;;;;;;8.33;3.53;;;;;;;;;;5011696;28;20415;-86
2022/07/20 14:03:32;;;;;;;7.60;3.35;;;;;;;;;;5030265;28;20428;-86
2022/07/20 14:05:58;;;;;;;10.07;3.67;;;;;;;;;;5015386;28;20404;-85
2022/07/20 14:08:24;;;;;;;6.65;3.40;;;;;;;;;;5034661;28;21028;-84
2022/07/20 14:10:51;;;;;;;5.95;3.40;;;;;;;;;;5015903;28;20389;-86
2022/07/20 14:13:17;;;;;;;8.98;3.42;;;;;;;;;;5014258;28;20464;-86
2022/07/20 14:15:43;;;;;;;6.23;3.17;;;;;;;;;;5034853;28;20377;-85
2022/07/20 14:18:10;;;;;;;11.80;4.15;;;;;;;;;;5034843;28;20374;-88
2022/07/20 14:20:36;;;;;;;7.18;3.20;;;;;;;;;;5016972;28;20404;-85
2022/07/20 14:23:02;;;;;;;8.07;3.40;;;;;;;;;;5016659;28;20873;-85
2022/07/20 14:25:28;;;;;;;8.88;3.20;;;;;;;;;;5017768;28;20366;-86
2022/07/20 14:27:54;;;;;;;6.25;3.22;;;;;;;;;;5035369;28;20384;-85
2022/07/20 14:30:20;;;;;;;5.10;3.30;;;;;;;;;;5017310;28;20387;-84
2022/07/20 14:32:46;;;;;;;5.55;3.28;;;;;;;;;;5016873;28;20385;-86
2022/07/20 14:35:12;;;;;;;7.15;3.78;;;;;;;;;;5017290;28;20807;-85
2022/07/20 14:37:38;;;;;;;5.88;3.20;;;;;;;;;;5016549;28;20385;-85
2022/07/20 14:40:11;;;;;;;10.33;3.10;;;;;;;;;;5016837;28;20416;-86
2022/07/20 14:42:40;;;;;;;6.47;3.63;;;;;;;;;;5034183;28;20387;-86
2022/07/20 14:45:06;;;;;;;7.97;3.50;;;;;;;;;;5016559;28;20400;-85
2022/07/20 14:47:32;;;;;;;8.85;3.80;;;;;;;;;;5032356;28;20369;-85
2022/07/20 14:49:58;;;;;;;7.50;3.30;;;;;;;;;;5017105;28;20381;-85
2022/07/20 14:52:24;;;;;;;7.80;3.13;;;;;;;;;;5016776;28;20388;-86
2022/07/20 14:54:50;;;;;;;6.27;3.33;;;;;;;;;;5033328;28;20389;-85
2022/07/20 14:57:16;;;;;;;7.30;3.20;;;;;;;;;;5013954;28;20425;-84
2022/07/20 14:59:42;;;;;;;28.10;4.85;;;;;;;;;;5016330;28;20451;-85
2022/07/20 15:02:09;;;;;;;18.30;4.20;;;;;;;;;;5032333;28;20875;-85